createdAt,value
2022-12-07T00:01:40.000Z,5.20
2022-12-07T00:04:08.139Z,4.53
2022-12-07T00:06:36.806Z,5.45
2022-12-07T00:09:07.749Z,4.50
2022-12-07T00:11:34.919Z,5.50
2022-12-07T00:14:08.393Z,4.72
2022-12-07T00:16:35.866Z,3.97
2022-12-07T00:19:03.872Z,5.57
2022-12-07T00:21:33.331Z,4.88
2022-12-07T00:24:00.107Z,5.28
2022-12-07T00:26:35.399Z,4.15
2022-12-07T00:29:05.379Z,3.80
2022-12-07T00:31:39.694Z,4.47
2022-12-07T00:34:15.498Z,4.07
2022-12-07T00:36:42.106Z,4.20
2022-12-07T00:39:09.465Z,3.25
2022-12-07T00:41:36.087Z,4.10
2022-12-07T00:44:02.729Z,4.13
2022-12-07T00:46:30.756Z,4.10
2022-12-07T00:48:57.438Z,3.75
2022-12-07T00:51:25.390Z,5.43
2022-12-07T00:53:52.142Z,3.97
2022-12-07T00:56:29.519Z,4.00
2022-12-07T00:59:02.598Z,4.13
2022-12-07T01:01:32.117Z,3.70
2022-12-07T01:03:59.033Z,3.70
2022-12-07T01:06:26.394Z,4.03
2022-12-07T01:08:53.726Z,3.30
2022-12-07T01:11:22.875Z,3.65
2022-12-07T01:13:52.230Z,3.45
2022-12-07T01:16:19.695Z,4.28
2022-12-07T01:18:51.280Z,3.50
2022-12-07T01:21:27.025Z,3.45
2022-12-07T01:23:53.930Z,3.35
2022-12-07T01:26:23.278Z,4.22
2022-12-07T01:28:50.709Z,3.33
2022-12-07T01:31:20.231Z,3.92
2022-12-07T01:33:49.204Z,3.97
2022-12-07T01:36:22.053Z,3.50
2022-12-07T01:38:52.488Z,3.97
2022-12-07T01:41:20.130Z,4.05
2022-12-07T01:44:10.916Z,3.15
2022-12-07T01:46:37.811Z,3.80
2022-12-07T01:49:10.952Z,3.10
2022-12-07T01:51:40.997Z,3.97
2022-12-07T01:54:08.284Z,3.17
2022-12-07T01:56:35.392Z,3.63
2022-12-07T01:59:02.313Z,3.72
2022-12-07T02:01:29.353Z,3.40
2022-12-07T02:03:56.662Z,3.17
2022-12-07T02:06:26.622Z,3.15
2022-12-07T02:08:54.255Z,3.30
2022-12-07T02:11:21.466Z,3.08
2022-12-07T02:13:48.894Z,2.60
2022-12-07T02:16:26.249Z,3.08
2022-12-07T02:19:19.982Z,3.47
2022-12-07T02:22:26.574Z,3.95
2022-12-07T02:25:09.714Z,3.70
2022-12-07T02:27:53.862Z,3.38
2022-12-07T02:30:22.498Z,3.55
2022-12-07T02:33:01.327Z,3.10
2022-12-07T02:35:57.786Z,3.20
2022-12-07T02:38:39.676Z,2.83
2022-12-07T02:41:24.361Z,3.40
2022-12-07T02:43:54.887Z,3.20
2022-12-07T02:46:34.438Z,3.72
2022-12-07T02:49:01.617Z,2.72
2022-12-07T02:51:32.781Z,2.90
2022-12-07T02:53:59.680Z,2.97
2022-12-07T02:56:44.521Z,2.85
2022-12-07T02:59:30.671Z,3.13
2022-12-07T03:02:13.190Z,3.33
2022-12-07T03:04:51.916Z,2.83
2022-12-07T03:07:45.075Z,3.10
2022-12-07T03:10:23.370Z,2.80
2022-12-07T03:13:17.513Z,3.00
2022-12-07T03:15:51.029Z,2.80
2022-12-07T03:18:21.296Z,2.70
2022-12-07T03:20:51.939Z,2.67
2022-12-07T03:23:20.293Z,2.67
2022-12-07T03:25:54.519Z,3.05
2022-12-07T03:28:27.500Z,2.38
2022-12-07T03:31:04.092Z,3.10
2022-12-07T03:33:54.178Z,2.60
2022-12-07T03:36:31.163Z,2.42
2022-12-07T03:39:23.100Z,2.90
2022-12-07T03:41:50.239Z,2.88
2022-12-07T03:44:17.857Z,2.63
2022-12-07T03:47:00.930Z,3.28
2022-12-07T03:49:56.468Z,3.00
2022-12-07T03:52:29.251Z,2.60
2022-12-07T03:55:06.172Z,2.50
2022-12-07T03:57:35.366Z,2.67
2022-12-07T04:00:04.593Z,2.95
2022-12-07T04:02:31.519Z,2.72
2022-12-07T04:04:58.233Z,2.92
2022-12-07T04:07:25.243Z,2.70
2022-12-07T04:09:51.891Z,2.65
2022-12-07T04:12:18.647Z,2.38
2022-12-07T04:14:45.171Z,3.05
2022-12-07T04:17:12.608Z,2.30
2022-12-07T04:19:39.294Z,2.53
2022-12-07T04:22:06.627Z,3.00
2022-12-07T04:24:34.525Z,2.70
2022-12-07T04:27:01.298Z,2.70
2022-12-07T04:29:28.469Z,2.60
2022-12-07T04:31:55.099Z,3.03
2022-12-07T04:34:21.817Z,2.30
2022-12-07T04:36:48.670Z,2.10
2022-12-07T04:39:27.905Z,2.60
2022-12-07T04:41:54.795Z,3.10
2022-12-07T04:44:22.668Z,2.65
2022-12-07T04:46:49.775Z,2.95
2022-12-07T04:49:16.986Z,2.55
2022-12-07T04:51:44.515Z,2.40
2022-12-07T04:54:11.734Z,2.50
2022-12-07T04:56:39.123Z,3.17
2022-12-07T04:59:06.457Z,2.38
2022-12-07T05:01:33.453Z,2.20
2022-12-07T05:04:00.389Z,2.80
2022-12-07T05:06:27.055Z,2.20
2022-12-07T05:08:53.891Z,2.45
2022-12-07T05:11:38.868Z,2.40
2022-12-07T05:14:07.495Z,2.25
2022-12-07T05:16:34.337Z,2.20
2022-12-07T05:19:00.984Z,2.45
2022-12-07T05:21:27.604Z,2.10
2022-12-07T05:23:54.152Z,2.25
2022-12-07T05:26:20.841Z,2.53
2022-12-07T05:28:54.257Z,2.20
2022-12-07T05:31:21.442Z,3.25
2022-12-07T05:33:48.448Z,2.20
2022-12-07T05:36:15.027Z,1.70
2022-12-07T05:38:42.265Z,2.80
2022-12-07T05:41:29.722Z,2.30
2022-12-07T05:43:57.115Z,2.53
2022-12-07T05:48:50.326Z,2.75
2022-12-07T05:51:17.198Z,2.92
2022-12-07T05:53:43.856Z,6.95
2022-12-07T05:56:10.475Z,9.27
2022-12-07T05:58:55.499Z,7.78
2022-12-07T06:01:22.041Z,6.93
2022-12-07T06:03:48.563Z,11.38
2022-12-07T06:38:20.382Z,4.32
2022-12-07T06:40:47.006Z,4.00
2022-12-07T06:43:13.695Z,6.55
2022-12-07T06:45:41.815Z,8.23
2022-12-07T06:48:08.402Z,5.07
2022-12-07T06:50:35.035Z,3.83
2022-12-07T06:53:01.564Z,5.47
2022-12-07T06:55:28.141Z,3.70
2022-12-07T06:57:54.734Z,3.75
2022-12-07T07:00:22.539Z,3.50
2022-12-07T07:02:49.698Z,4.75
2022-12-07T07:05:17.386Z,3.60
2022-12-07T07:08:05.214Z,3.05
2022-12-07T07:10:30.594Z,4.65
2022-12-07T07:12:57.942Z,3.38
2022-12-07T07:15:24.928Z,4.38
2022-12-07T07:17:51.638Z,3.10
2022-12-07T07:20:18.551Z,4.53
2022-12-07T07:22:45.311Z,2.92
2022-12-07T07:25:11.966Z,4.38
2022-12-07T07:27:38.554Z,3.88
2022-12-07T07:30:05.791Z,3.75
2022-12-07T07:32:32.401Z,3.03
2022-12-07T07:34:59.000Z,3.38
2022-12-07T07:37:25.722Z,3.25
2022-12-07T07:39:52.285Z,2.75
2022-12-07T07:42:18.891Z,3.55
2022-12-07T07:44:45.504Z,3.10
2022-12-07T07:47:12.177Z,5.05
2022-12-07T07:49:41.937Z,3.08
2022-12-07T07:52:12.739Z,3.35
2022-12-07T07:54:39.586Z,3.60
2022-12-07T07:57:06.173Z,3.55
2022-12-07T07:59:32.918Z,5.10
2022-12-07T08:01:59.550Z,3.63
2022-12-07T08:04:26.918Z,4.15
2022-12-07T08:06:53.521Z,2.70
2022-12-07T08:09:20.243Z,3.63
2022-12-07T08:11:46.839Z,2.97
2022-12-07T08:14:13.362Z,4.43
2022-12-07T08:16:39.982Z,3.25
2022-12-07T08:19:07.670Z,3.80
2022-12-07T08:21:34.535Z,2.67
2022-12-07T08:24:01.132Z,2.92
2022-12-07T08:26:27.734Z,2.55
2022-12-07T08:28:54.465Z,2.63
2022-12-07T08:31:21.290Z,2.78
2022-12-07T08:33:48.408Z,2.95
2022-12-07T08:36:15.773Z,2.70
2022-12-07T08:39:01.347Z,3.88
2022-12-07T08:41:29.793Z,2.75
2022-12-07T08:43:56.355Z,3.72
2022-12-07T08:46:25.694Z,3.25
2022-12-07T08:49:13.886Z,2.92
2022-12-07T08:51:41.490Z,3.22
2022-12-07T08:54:12.225Z,2.60
2022-12-07T08:56:39.533Z,2.88
2022-12-07T08:59:06.819Z,2.55
2022-12-07T09:01:33.956Z,3.03
2022-12-07T09:04:00.702Z,3.22
2022-12-07T09:06:28.341Z,2.80
2022-12-07T09:08:58.970Z,2.53
2022-12-07T09:11:28.761Z,2.47
2022-12-07T09:13:56.003Z,2.97
2022-12-07T09:16:22.985Z,2.80
2022-12-07T09:18:49.595Z,2.90
2022-12-07T09:21:16.147Z,2.80
2022-12-07T09:23:44.150Z,2.70
2022-12-07T09:26:11.295Z,2.70
2022-12-07T09:28:38.602Z,3.00
2022-12-07T09:34:00.735Z,2.97
2022-12-07T09:36:28.594Z,2.72
2022-12-07T09:38:55.372Z,2.05
2022-12-07T09:41:24.663Z,2.80
2022-12-07T09:43:51.948Z,2.45
2022-12-07T09:46:21.394Z,2.88
2022-12-07T09:48:49.974Z,2.42
2022-12-07T09:51:25.554Z,2.40
2022-12-07T09:53:55.957Z,2.50
2022-12-07T09:56:23.613Z,2.65
2022-12-07T09:58:55.509Z,2.45
2022-12-07T10:01:23.249Z,2.72
2022-12-07T10:03:56.120Z,2.33
2022-12-07T10:06:22.991Z,2.20
2022-12-07T10:08:49.655Z,2.25
2022-12-07T10:11:17.084Z,2.20
2022-12-07T10:13:48.721Z,2.25
2022-12-07T10:16:41.141Z,2.80
2022-12-07T10:19:26.079Z,2.63
2022-12-07T10:22:01.114Z,2.40
2022-12-07T10:24:27.791Z,2.45
2022-12-07T10:26:56.177Z,2.38
2022-12-07T10:29:24.311Z,2.83
2022-12-07T10:31:57.527Z,2.45
2022-12-07T10:34:38.013Z,2.70
2022-12-07T10:37:14.614Z,2.88
2022-12-07T10:39:46.884Z,2.58
2022-12-07T10:42:25.092Z,3.22
2022-12-07T10:45:08.267Z,2.70
2022-12-07T10:48:08.131Z,2.05
2022-12-07T10:50:48.686Z,2.20
2022-12-07T10:53:42.752Z,2.63
2022-12-07T10:56:41.308Z,2.30
2022-12-07T10:59:16.817Z,2.50
2022-12-07T11:02:22.776Z,2.40
2022-12-07T11:04:59.575Z,2.58
2022-12-07T11:07:40.947Z,2.28
2022-12-07T11:10:25.692Z,2.40
2022-12-07T11:13:11.013Z,1.73
2022-12-07T11:16:06.354Z,2.20
2022-12-07T11:18:38.660Z,2.28
2022-12-07T11:21:29.886Z,2.08
2022-12-07T11:24:25.675Z,2.30
2022-12-07T11:27:07.316Z,2.30
2022-12-07T11:29:54.586Z,2.30
2022-12-07T11:32:46.714Z,2.15
2022-12-07T11:35:54.277Z,3.00
2022-12-07T11:38:29.790Z,2.22
2022-12-07T11:41:13.488Z,2.38
2022-12-07T11:44:06.999Z,3.25
2022-12-07T11:46:48.246Z,1.98
2022-12-07T11:49:20.348Z,2.07
2022-12-07T11:54:27.029Z,2.47
2022-12-07T11:56:56.741Z,2.08
2022-12-07T11:59:45.607Z,1.92
2022-12-07T12:02:25.192Z,2.13
2022-12-07T12:05:08.160Z,2.30
2022-12-07T12:10:43.618Z,2.40
2022-12-07T12:16:14.657Z,2.08
2022-12-07T12:19:09.742Z,1.85
2022-12-07T12:21:37.177Z,2.03
2022-12-07T12:24:14.296Z,2.20
2022-12-07T12:26:54.427Z,1.92
2022-12-07T12:29:41.751Z,2.13
2022-12-07T12:32:22.589Z,2.20
2022-12-07T12:34:50.970Z,1.80
2022-12-07T12:37:36.080Z,1.95
2022-12-07T12:40:17.653Z,1.92
2022-12-07T12:42:56.350Z,2.22
2022-12-07T12:45:31.915Z,2.22
2022-12-07T12:47:59.661Z,2.50
2022-12-07T12:50:38.373Z,1.80
2022-12-07T12:53:16.552Z,2.03
2022-12-07T12:55:43.043Z,2.38
2022-12-07T12:58:18.618Z,2.10
2022-12-07T13:00:47.600Z,2.08
2022-12-07T13:03:28.348Z,2.10
2022-12-07T13:06:25.897Z,2.03
2022-12-07T13:08:55.378Z,2.22
2022-12-07T13:11:37.117Z,1.85
2022-12-07T13:14:41.363Z,2.28
2022-12-07T13:17:32.385Z,2.22
2022-12-07T13:20:04.970Z,1.80
2022-12-07T13:22:31.468Z,1.98
2022-12-07T13:25:20.507Z,1.95
2022-12-07T13:28:03.148Z,1.83
2022-12-07T13:30:31.391Z,2.00
2022-12-07T13:32:59.696Z,1.80
2022-12-07T13:35:30.472Z,2.13
2022-12-07T13:37:57.229Z,1.90
2022-12-07T13:40:24.957Z,1.60
2022-12-07T13:43:03.812Z,2.30
2022-12-07T13:45:50.286Z,1.73
2022-12-07T13:48:36.515Z,1.98
2022-12-07T13:51:04.912Z,1.88
2022-12-07T13:53:31.796Z,1.70
2022-12-07T13:56:02.405Z,2.00
2022-12-07T13:58:32.815Z,1.75
2022-12-07T14:01:00.320Z,1.67
2022-12-07T14:03:39.219Z,2.08
2022-12-07T14:06:14.506Z,1.52
2022-12-07T14:08:41.144Z,1.83
2022-12-07T14:11:14.403Z,2.08
2022-12-07T14:14:05.742Z,1.85
2022-12-07T14:16:37.977Z,1.98
2022-12-07T14:19:06.534Z,1.83
2022-12-07T14:21:34.952Z,1.88
2022-12-07T14:24:11.740Z,2.00
2022-12-07T14:26:40.699Z,2.17
2022-12-07T14:29:39.818Z,2.13
2022-12-07T14:32:31.868Z,1.95
2022-12-07T14:35:09.100Z,1.85
2022-12-07T14:37:35.631Z,2.05
2022-12-07T14:40:02.208Z,1.88
2022-12-07T14:42:31.259Z,1.73
2022-12-07T14:44:58.838Z,1.88
2022-12-07T14:50:19.042Z,2.00
2022-12-07T14:55:37.527Z,2.17
2022-12-07T14:58:04.117Z,1.90
2022-12-07T15:00:31.042Z,1.75
2022-12-07T15:02:58.210Z,1.73
2022-12-07T15:05:25.021Z,1.75
2022-12-07T15:07:52.320Z,1.80
2022-12-07T15:10:24.443Z,2.40
2022-12-07T15:12:51.895Z,1.90
2022-12-07T15:15:18.751Z,2.28
2022-12-07T15:17:45.422Z,2.78
2022-12-07T15:20:15.160Z,1.92
2022-12-07T15:22:41.721Z,1.70
2022-12-07T15:25:10.250Z,1.80
2022-12-07T15:27:36.881Z,1.70
2022-12-07T15:30:04.587Z,1.73
2022-12-07T15:32:31.240Z,2.17
2022-12-07T15:34:57.872Z,1.85
2022-12-07T15:37:24.427Z,2.20
2022-12-07T15:39:50.961Z,2.00
2022-12-07T15:42:17.549Z,1.60
2022-12-07T15:45:03.123Z,1.70
2022-12-07T15:47:29.967Z,1.80
2022-12-07T15:49:56.820Z,2.15
2022-12-07T15:52:23.500Z,1.80
2022-12-07T15:54:50.090Z,1.80
2022-12-07T15:57:19.592Z,1.80
2022-12-07T15:59:50.238Z,1.50
2022-12-07T16:02:16.867Z,1.98
2022-12-07T16:04:43.609Z,1.58
2022-12-07T16:07:12.302Z,1.73
2022-12-07T16:09:39.121Z,1.83
2022-12-07T16:12:05.908Z,2.33
2022-12-07T16:14:34.152Z,2.00
2022-12-07T16:17:00.918Z,1.88
2022-12-07T16:19:27.639Z,1.88
2022-12-07T16:21:54.261Z,1.42
2022-12-07T16:24:20.842Z,1.88
2022-12-07T16:26:50.184Z,1.85
2022-12-07T16:29:19.241Z,1.92
2022-12-07T16:31:46.469Z,1.77
2022-12-07T16:34:13.062Z,1.80
2022-12-07T16:37:03.023Z,1.52
2022-12-07T16:39:26.400Z,1.67
2022-12-07T16:41:53.711Z,1.65
2022-12-07T16:44:20.267Z,1.77
2022-12-07T16:46:46.990Z,1.42
2022-12-07T16:49:15.028Z,1.63
2022-12-07T16:51:43.701Z,1.65
2022-12-07T16:54:12.771Z,1.90
2022-12-07T16:56:39.572Z,1.88
2022-12-07T16:59:06.180Z,1.77
2022-12-07T17:01:32.795Z,1.80
2022-12-07T17:03:59.830Z,2.13
2022-12-07T17:06:28.521Z,1.63
2022-12-07T17:08:55.619Z,1.60
2022-12-07T17:11:25.659Z,2.05
2022-12-07T17:14:11.841Z,1.80
2022-12-07T17:16:38.797Z,1.80
2022-12-07T17:19:07.057Z,1.70
2022-12-07T17:21:34.215Z,1.90
2022-12-07T17:24:02.154Z,1.67
2022-12-07T17:26:35.104Z,1.90
2022-12-07T17:29:03.955Z,1.88
2022-12-07T17:31:30.569Z,2.13
2022-12-07T17:33:57.151Z,1.70
2022-12-07T17:36:26.511Z,1.70
2022-12-07T17:38:53.681Z,1.95
2022-12-07T17:41:41.331Z,1.70
2022-12-07T17:44:10.411Z,1.88
2022-12-07T17:46:37.791Z,2.03
2022-12-07T17:49:05.069Z,1.70
2022-12-07T17:51:50.371Z,2.60
2022-12-07T17:54:17.750Z,1.80
2022-12-07T17:56:44.585Z,1.80
2022-12-07T17:59:11.891Z,1.77
2022-12-07T18:01:39.713Z,1.80
2022-12-07T18:04:06.837Z,4.65
2022-12-07T18:06:34.030Z,10.15
2022-12-07T18:13:54.109Z,11.77
2022-12-07T18:16:24.226Z,10.30
2022-12-07T18:18:53.894Z,7.70
2022-12-07T18:21:23.711Z,8.88
2022-12-07T18:23:53.026Z,8.57
2022-12-07T18:26:21.871Z,10.45
2022-12-07T18:28:48.954Z,6.93
2022-12-07T18:31:16.286Z,8.48
2022-12-07T18:33:44.999Z,8.18
2022-12-07T18:36:12.720Z,5.82
2022-12-07T18:38:40.137Z,5.13
2022-12-07T18:41:13.372Z,6.70
2022-12-07T18:43:40.217Z,5.10
2022-12-07T18:46:11.857Z,6.40
2022-12-07T18:48:38.757Z,5.47
2022-12-07T18:51:07.420Z,6.72
2022-12-07T18:53:34.913Z,5.50
2022-12-07T18:56:02.721Z,6.25
2022-12-07T18:58:29.500Z,5.45
2022-12-07T19:00:56.827Z,4.70
2022-12-07T19:03:25.601Z,5.68
2022-12-07T19:05:57.859Z,4.82
2022-12-07T19:08:27.594Z,4.20
2022-12-07T19:10:54.282Z,6.03
2022-12-07T19:13:20.925Z,8.02
2022-12-07T19:15:47.684Z,5.00
2022-12-07T19:18:14.257Z,4.82
2022-12-07T19:20:41.095Z,6.53
2022-12-07T19:23:07.646Z,4.97
2022-12-07T19:25:34.206Z,6.05
2022-12-07T19:28:00.943Z,5.75
2022-12-07T19:30:27.609Z,8.75
2022-12-07T19:32:54.364Z,6.97
2022-12-07T19:35:20.992Z,6.22
2022-12-07T19:37:47.581Z,7.05
2022-12-07T19:40:14.878Z,6.05
2022-12-07T19:42:41.606Z,4.53
2022-12-07T19:45:08.482Z,5.57
2022-12-07T19:47:35.150Z,4.40
2022-12-07T19:50:01.790Z,7.43
2022-12-07T19:52:30.977Z,5.10
2022-12-07T19:55:02.210Z,4.65
2022-12-07T19:57:29.629Z,5.57
2022-12-07T19:59:56.284Z,4.43
2022-12-07T20:02:23.134Z,4.40
2022-12-07T20:04:49.707Z,3.95
2022-12-07T20:07:16.294Z,3.45
2022-12-07T20:09:42.849Z,5.63
2022-12-07T20:12:36.724Z,5.13
2022-12-07T20:15:03.878Z,3.95
2022-12-07T20:17:30.744Z,3.30
2022-12-07T20:19:57.438Z,4.80
2022-12-07T20:22:24.109Z,4.32
2022-12-07T20:24:50.656Z,3.63
2022-12-07T20:27:17.741Z,3.55
2022-12-07T20:29:44.391Z,3.92
2022-12-07T20:32:12.274Z,5.07
2022-12-07T20:34:38.835Z,3.40
2022-12-07T20:37:05.490Z,4.35
2022-12-07T20:39:33.575Z,3.72
2022-12-07T20:42:18.727Z,3.30
2022-12-07T20:44:45.392Z,3.70
2022-12-07T20:47:11.973Z,3.70
2022-12-07T20:49:38.558Z,3.70
2022-12-07T20:52:05.091Z,3.13
2022-12-07T20:54:31.786Z,3.55
2022-12-07T20:56:58.613Z,3.25
2022-12-07T20:59:25.390Z,5.65
2022-12-07T21:01:53.354Z,4.28
2022-12-07T21:04:20.117Z,4.25
2022-12-07T21:06:46.827Z,6.70
2022-12-07T21:09:13.385Z,5.53
2022-12-07T21:11:40.174Z,3.55
2022-12-07T21:14:07.483Z,2.63
2022-12-07T21:16:34.102Z,2.70
2022-12-07T21:19:02.975Z,3.30
2022-12-07T21:21:30.714Z,3.60
2022-12-07T21:24:02.121Z,5.60
2022-12-07T21:26:33.536Z,4.68
2022-12-07T21:29:00.234Z,3.42
2022-12-07T21:31:26.927Z,2.78
2022-12-07T21:33:53.839Z,4.25
2022-12-07T21:36:22.792Z,5.50
2022-12-07T21:38:49.983Z,5.82
2022-12-07T21:41:22.997Z,9.63
2022-12-07T21:43:50.284Z,36.30
2022-12-07T21:46:18.484Z,38.88
2022-12-07T21:48:57.070Z,38.25
2022-12-07T21:51:25.815Z,37.03
2022-12-07T21:53:52.603Z,42.05
2022-12-07T21:56:21.133Z,32.45
2022-12-07T21:58:48.805Z,30.85
2022-12-07T22:01:27.541Z,27.30
2022-12-07T22:03:54.890Z,31.52
2022-12-07T22:06:24.238Z,28.58
2022-12-07T22:08:52.039Z,27.25
2022-12-07T22:11:18.969Z,22.90
2022-12-07T22:14:24.787Z,26.08
2022-12-07T22:16:52.355Z,26.52
2022-12-07T22:19:19.454Z,26.27
2022-12-07T22:21:46.036Z,24.77
2022-12-07T22:24:13.831Z,27.38
2022-12-07T22:26:41.738Z,25.48
2022-12-07T22:29:08.378Z,28.25
2022-12-07T22:31:35.572Z,21.63
2022-12-07T22:34:02.288Z,28.95
2022-12-07T22:36:29.750Z,22.80
2022-12-07T22:38:56.551Z,21.10
2022-12-07T22:41:31.987Z,26.63
2022-12-07T22:43:59.585Z,23.23
2022-12-07T22:46:27.039Z,19.35
2022-12-07T22:48:53.970Z,26.77
2022-12-07T22:51:28.995Z,21.00
2022-12-07T22:53:56.764Z,24.17
2022-12-07T22:56:23.449Z,26.08
2022-12-07T22:58:50.268Z,21.65
2022-12-07T23:01:18.588Z,17.70
2022-12-07T23:03:45.760Z,16.83
2022-12-07T23:06:27.002Z,16.65
2022-12-07T23:08:56.466Z,19.35
2022-12-07T23:11:45.068Z,18.52
2022-12-07T23:14:21.479Z,20.88
2022-12-07T23:16:48.191Z,17.63
2022-12-07T23:19:15.063Z,16.65
2022-12-07T23:21:42.902Z,19.33
2022-12-07T23:24:12.098Z,19.30
2022-12-07T23:26:38.823Z,18.80
2022-12-07T23:29:05.360Z,15.80
2022-12-07T23:31:32.261Z,15.82
2022-12-07T23:33:58.856Z,18.17
2022-12-07T23:36:27.463Z,17.95
2022-12-07T23:38:56.781Z,15.15
2022-12-07T23:41:28.767Z,13.55
2022-12-07T23:43:56.971Z,16.02
2022-12-07T23:46:26.936Z,18.25
2022-12-07T23:48:55.469Z,14.98
2022-12-07T23:51:22.715Z,19.02
2022-12-07T23:53:51.499Z,14.15
2022-12-07T23:56:23.723Z,11.30
2022-12-07T23:58:51.234Z,14.60
